createdAt,value
2019-05-02T00:01:07.208Z,26.77
2019-05-02T00:06:07.527Z,26.23
2019-05-02T00:11:00.302Z,25.23
2019-05-02T00:15:54.319Z,26.97
2019-05-02T00:20:48.624Z,26.33
2019-05-02T00:25:42.455Z,32.77
2019-05-02T00:30:40.891Z,27.33
2019-05-02T00:35:34.623Z,26.57
2019-05-02T00:40:28.724Z,26.73
2019-05-02T00:45:23.858Z,28.80
2019-05-02T00:50:20.075Z,27.60
2019-05-02T00:55:16.237Z,24.97
2019-05-02T01:00:13.332Z,31.87
2019-05-02T01:05:07.135Z,28.27
2019-05-02T01:10:05.279Z,29.77
2019-05-02T01:15:03.405Z,29.47
2019-05-02T01:19:54.639Z,31.57
2019-05-02T01:24:48.495Z,31.77
2019-05-02T01:29:50.131Z,29.47
2019-05-02T01:34:48.973Z,36.17
2019-05-02T01:39:42.774Z,34.30
2019-05-02T01:44:38.007Z,34.87
2019-05-02T01:49:32.291Z,38.30
2019-05-02T01:54:26.035Z,38.70
2019-05-02T01:59:20.062Z,36.13
2019-05-02T02:04:16.315Z,37.73
2019-05-02T02:09:09.898Z,37.47
2019-05-02T02:14:07.246Z,35.80
2019-05-02T02:19:06.063Z,35.57
2019-05-02T02:24:01.467Z,37.07
2019-05-02T02:28:55.303Z,39.07
2019-05-02T02:33:50.003Z,36.23
2019-05-02T02:38:46.440Z,35.63
2019-05-02T02:43:40.774Z,40.03
2019-05-02T02:48:40.643Z,38.93
2019-05-02T02:53:30.585Z,45.97
2019-05-02T02:58:24.469Z,48.47
2019-05-02T03:03:20.940Z,44.87
2019-05-02T03:08:14.191Z,48.57
2019-05-02T03:18:20.399Z,48.60
2019-05-02T03:23:15.313Z,45.80
2019-05-02T03:28:17.498Z,46.87
2019-05-02T03:33:11.250Z,49.63
2019-05-02T03:38:06.705Z,51.27
2019-05-02T03:43:00.805Z,46.23
2019-05-02T03:47:54.847Z,47.63
2019-05-02T03:52:48.693Z,47.10
2019-05-02T04:02:37.081Z,49.77
2019-05-02T04:07:39.811Z,51.03
2019-05-02T04:12:26.514Z,49.80
2019-05-02T04:17:22.370Z,47.67
2019-05-02T04:22:18.338Z,48.37
2019-05-02T04:27:13.231Z,49.70
2019-05-02T04:32:11.836Z,46.23
2019-05-02T04:37:04.078Z,50.03
2019-05-02T04:41:59.004Z,48.20
2019-05-02T04:46:59.937Z,49.57
2019-05-02T04:51:59.889Z,53.00
2019-05-02T04:56:49.514Z,46.77
2019-05-02T05:01:49.063Z,48.80
2019-05-02T05:06:40.898Z,45.67
2019-05-02T05:11:38.018Z,46.13
2019-05-02T05:16:31.919Z,45.70
2019-05-02T05:21:26.706Z,41.47
2019-05-02T05:26:22.699Z,40.20
2019-05-02T05:31:23.861Z,43.30
2019-05-02T05:36:14.071Z,42.70
2019-05-02T05:41:11.245Z,42.00
2019-05-02T05:46:10.659Z,43.17
2019-05-02T05:51:02.700Z,43.87
2019-05-02T05:56:01.005Z,40.87
2019-05-02T06:00:55.455Z,37.57
2019-05-02T06:05:48.078Z,34.80
2019-05-02T06:10:43.879Z,28.70
2019-05-02T06:15:38.945Z,31.57
2019-05-02T06:20:33.578Z,31.57
2019-05-02T06:25:34.067Z,30.73
2019-05-02T06:30:27.098Z,32.30
2019-05-02T06:35:21.130Z,38.77
2019-05-02T06:40:17.363Z,38.10
2019-05-02T06:45:11.648Z,36.37
2019-05-02T06:50:07.375Z,39.10
2019-05-02T06:55:01.294Z,39.07
2019-05-02T06:59:56.525Z,32.87
2019-05-02T07:04:54.744Z,36.17
2019-05-02T07:09:45.824Z,38.80
2019-05-02T07:19:35.267Z,38.03
2019-05-02T07:24:30.801Z,40.03
2019-05-02T07:29:25.189Z,35.80
2019-05-02T07:34:21.597Z,40.00
2019-05-02T07:39:15.827Z,34.23
2019-05-02T07:44:09.624Z,34.27
2019-05-02T07:49:03.807Z,38.73
2019-05-02T07:53:58.175Z,41.53
2019-05-02T07:58:53.565Z,37.67
2019-05-02T08:03:47.358Z,36.40
2019-05-02T08:08:41.309Z,36.27
2019-05-02T08:13:35.450Z,31.30
2019-05-02T08:18:30.369Z,23.97
2019-05-02T08:23:27.671Z,41.27
2019-05-02T08:28:23.328Z,29.02
2019-05-02T08:33:17.163Z,33.60
2019-05-02T08:38:12.563Z,57.30
2019-05-02T08:43:08.970Z,30.80
2019-05-02T08:48:07.077Z,32.40
2019-05-02T08:53:00.865Z,34.57
2019-05-02T08:57:54.719Z,37.97
2019-05-02T09:02:48.448Z,29.77
2019-05-02T09:07:43.022Z,37.00
2019-05-02T09:12:42.024Z,36.80
2019-05-02T09:17:38.218Z,39.50
2019-05-02T09:22:28.955Z,35.93
2019-05-02T09:27:22.808Z,24.73
2019-05-02T09:32:25.011Z,27.53
2019-05-02T09:37:12.222Z,33.73
2019-05-02T09:42:06.755Z,29.13
2019-05-02T09:47:04.099Z,84.23
2019-05-02T09:51:59.434Z,29.48
2019-05-02T09:56:54.777Z,29.37
2019-05-02T10:01:48.647Z,28.47
2019-05-02T10:06:43.062Z,29.00
2019-05-02T10:11:37.778Z,29.35
2019-05-02T10:16:33.774Z,26.97
2019-05-02T10:21:27.338Z,24.02
2019-05-02T10:26:24.557Z,43.00
2019-05-02T10:31:18.724Z,23.35
2019-05-02T10:36:19.677Z,19.40
2019-05-02T10:41:08.286Z,19.52
2019-05-02T10:46:04.044Z,20.12
2019-05-02T10:51:15.816Z,19.05
2019-05-02T10:56:11.714Z,19.65
2019-05-02T11:01:06.466Z,19.57
2019-05-02T11:06:07.658Z,20.20
2019-05-02T11:11:01.990Z,23.75
2019-05-02T11:16:16.075Z,25.77
2019-05-02T11:21:10.019Z,25.70
2019-05-02T11:26:05.488Z,26.07
2019-05-02T11:31:02.635Z,28.23
2019-05-02T11:35:55.006Z,27.40
2019-05-02T11:40:48.787Z,108.77
2019-05-02T11:45:42.575Z,27.20
2019-05-02T11:50:38.425Z,24.70
2019-05-02T11:55:32.407Z,27.40
2019-05-02T12:00:26.175Z,46.13
2019-05-02T12:05:22.217Z,26.67
2019-05-02T12:10:18.305Z,25.83
2019-05-02T12:15:21.643Z,24.10
2019-05-02T12:20:14.899Z,36.53
2019-05-02T12:25:09.061Z,25.37
2019-05-02T12:30:03.452Z,24.30
2019-05-02T12:34:57.471Z,25.57
2019-05-02T12:39:51.761Z,32.70
2019-05-02T12:49:38.595Z,25.20
2019-05-02T12:54:32.645Z,24.47
2019-05-02T12:59:26.420Z,24.47
2019-05-02T13:04:20.197Z,26.33
2019-05-02T13:09:14.022Z,24.53
2019-05-02T13:14:16.856Z,24.27
2019-05-02T13:19:06.419Z,21.83
2019-05-02T13:24:07.425Z,22.80
2019-05-02T13:29:02.448Z,23.47
2019-05-02T13:33:58.015Z,23.30
2019-05-02T13:38:51.981Z,25.00
2019-05-02T13:43:47.722Z,21.83
2019-05-02T13:48:42.968Z,22.93
2019-05-02T13:53:38.510Z,19.77
2019-05-02T13:58:34.333Z,21.43
2019-05-02T14:03:30.138Z,17.33
2019-05-02T14:28:12.777Z,13.40
2019-05-02T14:33:09.064Z,13.33
2019-05-02T14:38:09.823Z,13.47
2019-05-02T14:43:06.032Z,11.10
2019-05-02T14:48:18.028Z,12.23
2019-05-02T14:52:58.120Z,13.17
2019-05-02T14:57:52.626Z,15.00
2019-05-02T15:02:49.186Z,18.83
2019-05-02T15:07:46.360Z,17.53
2019-05-02T15:12:41.923Z,15.43
2019-05-02T15:17:37.841Z,15.97
2019-05-02T15:22:33.103Z,12.77
2019-05-02T15:27:39.386Z,17.20
2019-05-02T15:32:37.305Z,20.50
2019-05-02T15:37:29.388Z,21.90
2019-05-02T15:42:25.659Z,16.53
2019-05-02T15:47:19.686Z,17.30
2019-05-02T15:52:18.967Z,17.00
2019-05-02T15:57:12.915Z,18.40
2019-05-02T16:02:12.934Z,12.83
2019-05-02T16:07:11.918Z,26.80
2019-05-02T16:12:06.432Z,17.13
2019-05-02T16:17:01.833Z,27.00
2019-05-02T16:22:08.063Z,20.63
2019-05-02T16:27:05.072Z,22.10
2019-05-02T16:32:09.758Z,15.77
2019-05-02T16:37:13.585Z,20.57
2019-05-02T16:42:06.875Z,18.83
2019-05-02T16:47:02.183Z,15.33
2019-05-02T16:51:57.373Z,16.50
2019-05-02T16:56:52.129Z,15.63
2019-05-02T17:01:46.318Z,15.63
2019-05-02T17:06:40.163Z,15.57
2019-05-02T17:11:36.640Z,15.17
2019-05-02T17:16:31.596Z,16.87
2019-05-02T17:21:26.768Z,19.20
2019-05-02T17:26:22.710Z,15.83
2019-05-02T17:31:20.505Z,16.93
2019-05-02T17:36:12.318Z,17.67
2019-05-02T17:41:07.919Z,17.77
2019-05-02T17:46:07.428Z,15.70
2019-05-02T17:51:05.123Z,14.90
2019-05-02T17:56:01.733Z,14.10
2019-05-02T18:01:00.124Z,16.87
2019-05-02T18:05:53.049Z,14.63
2019-05-02T18:10:50.601Z,15.37
2019-05-02T18:15:44.201Z,15.57
2019-05-02T18:20:42.783Z,14.27
2019-05-02T18:25:33.603Z,14.07
2019-05-02T18:30:28.418Z,13.07
2019-05-02T18:35:23.010Z,16.57
2019-05-02T18:40:20.264Z,14.77
2019-05-02T18:45:18.507Z,14.20
2019-05-02T18:50:27.143Z,15.20
2019-05-02T18:55:23.058Z,15.17
2019-05-02T19:00:39.496Z,13.80
2019-05-02T19:05:37.597Z,17.83
2019-05-02T19:10:32.495Z,14.00
2019-05-02T19:15:26.403Z,18.87
2019-05-02T19:20:23.974Z,17.40
2019-05-02T19:25:17.758Z,16.80
2019-05-02T19:30:13.091Z,15.97
2019-05-02T19:35:07.507Z,16.13
2019-05-02T19:40:01.770Z,17.83
2019-05-02T19:44:55.621Z,21.60
2019-05-02T19:49:52.377Z,18.37
2019-05-02T19:54:46.459Z,21.17
2019-05-02T19:59:40.415Z,19.80
2019-05-02T20:04:37.793Z,18.17
2019-05-02T20:09:31.769Z,21.23
2019-05-02T20:14:25.271Z,20.47
2019-05-02T20:19:25.003Z,20.77
2019-05-02T20:24:19.290Z,22.00
2019-05-02T20:29:11.857Z,22.30
2019-05-02T20:34:06.098Z,27.43
2019-05-02T20:39:02.162Z,20.00
2019-05-02T20:43:55.787Z,25.63
2019-05-02T20:48:50.081Z,25.30
2019-05-02T20:53:43.956Z,24.03
2019-05-02T20:58:38.205Z,20.93
2019-05-02T21:03:32.137Z,25.60
2019-05-02T21:08:33.935Z,21.50
2019-05-02T21:13:27.951Z,22.03
2019-05-02T21:18:22.134Z,24.83
2019-05-02T21:23:16.136Z,20.70
2019-05-02T21:28:11.951Z,22.60
2019-05-02T21:33:11.913Z,20.70
2019-05-02T21:38:06.343Z,23.00
2019-05-02T21:43:03.112Z,20.40
2019-05-02T21:47:56.958Z,23.17
2019-05-02T21:52:56.095Z,21.90
2019-05-02T21:57:52.059Z,26.77
2019-05-02T22:02:45.605Z,26.93
2019-05-02T22:07:41.599Z,22.73
2019-05-02T22:12:35.437Z,21.50
2019-05-02T22:17:29.356Z,27.40
2019-05-02T22:22:23.120Z,22.83
2019-05-02T22:27:19.135Z,20.83
2019-05-02T22:32:12.932Z,31.80
2019-05-02T22:37:09.053Z,25.80
2019-05-02T22:42:04.578Z,21.23
2019-05-02T22:46:59.264Z,20.60
2019-05-02T22:51:53.022Z,20.70
2019-05-02T22:56:46.953Z,17.53
2019-05-02T23:01:42.144Z,22.50
2019-05-02T23:06:36.632Z,22.77
2019-05-02T23:11:33.359Z,21.53
2019-05-02T23:16:27.348Z,27.50
2019-05-02T23:21:21.788Z,23.17
2019-05-02T23:26:22.304Z,20.83
2019-05-02T23:31:15.794Z,20.40
2019-05-02T23:36:09.750Z,25.13
2019-05-02T23:41:07.811Z,20.77
2019-05-02T23:46:02.297Z,18.27
2019-05-02T23:50:56.878Z,21.10
2019-05-02T23:55:50.838Z,18.83
